This is the latest recevied weather packets stored in our database for station/object KO4RJX-10. If no packets are shown the sender has not sent any weather packets the latest 10 day(s).
| Time | Temp. | Humidity | Pressure | Rain* | Wind** | Luminosity | Snow |
|---|---|---|---|---|---|---|---|
| 1777823786 | 15.56° C | 31% | 1012.2 hPa | 0 mm | - | - | - |
| 1777823385 | 15.56° C | 33% | 1012.2 hPa | 0 mm | - | - | - |
| 1777819784 | 13.89° C | 40% | 1012.2 hPa | 0 mm | - | - | - |
| 1777812984 | 11.11° C | 64% | 1012.2 hPa | 0 mm | - | - | - |
| 1777808584 | 7.22° C | 82% | 1011.5 hPa | 0 mm | - | - | - |
| 1777807784 | 6.67° C | 86% | 1011.2 hPa | 0 mm | - | - | - |
| 1777807384 | 6.11° C | 88% | 1011.2 hPa | 0 mm | - | - | - |
| 1777804184 | 5° C | 92% | 1010.2 hPa | 0 mm | - | - | - |
| 1777800985 | 5.56° C | 93% | 1009.5 hPa | 0 mm | - | - | - |
| 1777800584 | 5.56° C | 93% | 1009.5 hPa | 0 mm | - | - | - |
| 1777797384 | 6.67° C | 95% | 1008.8 hPa | 0 mm | - | - | - |
| 1777796584 | 6.67° C | 96% | 1008.5 hPa | 0 mm | - | - | - |
| 1777795384 | 6.67° C | 97% | 1008.5 hPa | 0 mm | - | - | - |
| 1777794984 | 7.22° C | 97% | 1008.5 hPa | 0 mm | - | - | - |
| 1777793784 | 7.78° C | 96% | 1008.1 hPa | 0 mm | - | - | - |
| 1777793384 | 7.78° C | 96% | 1008.1 hPa | 0 mm | - | - | - |
| 1777792985 | 7.78° C | 96% | 1007.8 hPa | 0 mm | - | - | - |
| 1777789784 | 8.33° C | 98% | 1007.5 hPa | 0 mm | - | - | - |
| 1777783784 | 8.89° C | 100% | 1007.5 hPa | 0 mm | - | - | - |
| 1777782184 | 9.44° C | 100% | 1007.5 hPa | 0 mm | - | - | - |
| 1777780985 | 9.44° C | 100% | 1007.1 hPa | 0 mm | - | - | - |
| 1777780184 | 10° C | 100% | 1007.1 hPa | 19.56 mm | - | - | - |
| 1777777913 | 10° C | 100% | 1006.8 hPa | 19.56 mm | - | - | - |
| 1777775384 | 10° C | 100% | 1006.8 hPa | 19.56 mm | - | - | - |
| 1777774984 | 10° C | 100% | 1007.1 hPa | 19.56 mm | - | - | - |
* Rain since midnight (hover to see other rain measurements)
** Current wind speed in m/s (hover to see current wind gust speed)